This is the latest recevied weather packets stored in our database for station/object KE2GQQ. If no packets are shown the sender has not sent any weather packets the latest 10 day(s).
| Time | Temp. | Humidity | Pressure | Rain* | Wind** | Luminosity | Snow |
|---|---|---|---|---|---|---|---|
| 1777677618 | 12.78° C | 64% | 1011 hPa | 0 mm | - | 10 W/m² | - |
| 1777676418 | 13.33° C | 61% | 1010.8 hPa | 0 mm | - | 13 W/m² | - |
| 1777673416 | 14.44° C | 58% | 1010.9 hPa | 0 mm | - | 33 W/m² | - |
| 1777668617 | 16.67° C | 49% | 1010.5 hPa | 0 mm | - | 42 W/m² | - |
| 1777662016 | 17.78° C | 41% | 1010.9 hPa | 0 mm | - | 109 W/m² | - |
| 1777661416 | 17.22° C | 42% | 1011.1 hPa | 0 mm | - | 110 W/m² | - |
| 1777659616 | 16.11° C | 42% | 1011.4 hPa | 0 mm | - | 62 W/m² | - |
| 1777657816 | 16.67° C | 42% | 1011.5 hPa | 0 mm | - | 156 W/m² | - |
| 1777656617 | 15.56° C | 44% | 1011.6 hPa | 0 mm | - | 212 W/m² | - |
| 1777654217 | 15° C | 43% | 1012.1 hPa | 0 mm | - | 113 W/m² | - |
| 1777631124 | 7.22° C | 71% | 1012.4 hPa | 0 mm | - | 11 W/m² | - |
| 1777629924 | 7.22° C | 72% | 1012.2 hPa | 0 mm | - | 4 W/m² | - |
| 1777620927 | 8.89° C | 64% | 1011.2 hPa | 0 mm | - | 0 W/m² | - |
| 1777619127 | 8.89° C | 67% | 1011.1 hPa | 0 mm | - | 0 W/m² | - |
| 1777617348 | 9.44° C | 67% | 1010.8 hPa | 0 mm | - | 0 W/m² | - |
| 1777610116 | 11.11° C | 66% | 1010.5 hPa | 0 mm | - | 0 W/m² | - |
| 1777609516 | 11.67° C | 65% | 1010.4 hPa | 0 mm | - | 0 W/m² | - |
| 1777608317 | 11.67° C | 66% | 1010.3 hPa | 0 mm | - | 0 W/m² | - |
| 1777602917 | 8.89° C | 85% | 1009.9 hPa | 0 mm | - | 0 W/m² | - |
| 1777601118 | 9.44° C | 84% | 1009.7 hPa | 0 mm | - | 0 W/m² | - |
| 1777594516 | 12.22° C | 78% | 1008.2 hPa | 0 mm | - | 0 W/m² | - |
| 1777586715 | 14.44° C | 76% | 1007.5 hPa | 0 mm | - | 34 W/m² | - |
| 1777585536 | 13.89° C | 80% | 1007.3 hPa | 0 mm | - | 72 W/m² | - |
| 1777582517 | 15.56° C | 74% | 1006.9 hPa | 0 mm | - | 21 W/m² | - |
| 1777577724 | 15° C | 77% | 1006.5 hPa | 0 mm | - | 119 W/m² | - |
* Rain latest hour (hover to see other rain measurements)
** Current wind speed in m/s (hover to see current wind gust speed)